sensor_id;sensor_type;location;lat;lon;timestamp;P1;durP1;ratioP1;P2;durP2;ratioP2
32297;SDS011;18782;48.984;8.548;2024-03-02T00:00:57;11.07;;;7.72;;
32297;SDS011;18782;48.984;8.548;2024-03-02T00:03:25;13.27;;;7.35;;
32297;SDS011;18782;48.984;8.548;2024-03-02T00:05:53;10.25;;;6.72;;
32297;SDS011;18782;48.984;8.548;2024-03-02T00:08:22;10.35;;;6.20;;
32297;SDS011;18782;48.984;8.548;2024-03-02T00:10:53;10.20;;;6.65;;
32297;SDS011;18782;48.984;8.548;2024-03-02T00:13:25;11.05;;;6.78;;
32297;SDS011;18782;48.984;8.548;2024-03-02T00:15:54;11.57;;;7.00;;
32297;SDS011;18782;48.984;8.548;2024-03-02T00:18:24;9.10;;;6.30;;
32297;SDS011;18782;48.984;8.548;2024-03-02T00:20:54;11.27;;;6.78;;
32297;SDS011;18782;48.984;8.548;2024-03-02T00:23:23;12.18;;;7.53;;
32297;SDS011;18782;48.984;8.548;2024-03-02T00:25:52;16.30;;;9.98;;
32297;SDS011;18782;48.984;8.548;2024-03-02T00:28:22;12.43;;;7.85;;
32297;SDS011;18782;48.984;8.548;2024-03-02T00:30:52;12.27;;;8.43;;
32297;SDS011;18782;48.984;8.548;2024-03-02T00:33:26;14.05;;;7.72;;
32297;SDS011;18782;48.984;8.548;2024-03-02T00:35:55;15.82;;;7.80;;
32297;SDS011;18782;48.984;8.548;2024-03-02T00:38:23;10.30;;;6.88;;
32297;SDS011;18782;48.984;8.548;2024-03-02T00:40:51;10.82;;;6.57;;
32297;SDS011;18782;48.984;8.548;2024-03-02T00:48:53;12.57;;;7.18;;
32297;SDS011;18782;48.984;8.548;2024-03-02T00:51:22;13.02;;;6.70;;
32297;SDS011;18782;48.984;8.548;2024-03-02T00:53:51;11.82;;;6.90;;
32297;SDS011;18782;48.984;8.548;2024-03-02T00:56:22;10.85;;;7.40;;
32297;SDS011;18782;48.984;8.548;2024-03-02T00:58:50;12.07;;;7.15;;
32297;SDS011;18782;48.984;8.548;2024-03-02T01:01:20;10.63;;;7.07;;
32297;SDS011;18782;48.984;8.548;2024-03-02T01:03:48;11.43;;;6.40;;
32297;SDS011;18782;48.984;8.548;2024-03-02T01:06:17;14.10;;;7.13;;
32297;SDS011;18782;48.984;8.548;2024-03-02T01:08:45;11.30;;;6.78;;
32297;SDS011;18782;48.984;8.548;2024-03-02T01:11:16;11.82;;;6.45;;
32297;SDS011;18782;48.984;8.548;2024-03-02T01:13:45;13.80;;;6.18;;
32297;SDS011;18782;48.984;8.548;2024-03-02T01:16:13;11.43;;;6.82;;
32297;SDS011;18782;48.984;8.548;2024-03-02T01:18:43;9.18;;;6.00;;
32297;SDS011;18782;48.984;8.548;2024-03-02T01:21:11;11.13;;;6.57;;
32297;SDS011;18782;48.984;8.548;2024-03-02T01:23:39;9.90;;;6.10;;
32297;SDS011;18782;48.984;8.548;2024-03-02T01:26:06;9.43;;;6.15;;
32297;SDS011;18782;48.984;8.548;2024-03-02T01:28:34;11.27;;;6.10;;
32297;SDS011;18782;48.984;8.548;2024-03-02T01:31:02;8.95;;;5.82;;
32297;SDS011;18782;48.984;8.548;2024-03-02T01:33:30;9.80;;;6.15;;
32297;SDS011;18782;48.984;8.548;2024-03-02T01:35:59;9.23;;;5.80;;
32297;SDS011;18782;48.984;8.548;2024-03-02T01:38:26;10.00;;;5.05;;
32297;SDS011;18782;48.984;8.548;2024-03-02T01:40:55;9.45;;;5.43;;
32297;SDS011;18782;48.984;8.548;2024-03-02T01:43:23;9.25;;;5.80;;
32297;SDS011;18782;48.984;8.548;2024-03-02T01:45:50;9.00;;;5.30;;
32297;SDS011;18782;48.984;8.548;2024-03-02T01:48:19;9.88;;;5.85;;
32297;SDS011;18782;48.984;8.548;2024-03-02T01:50:47;8.52;;;5.53;;
32297;SDS011;18782;48.984;8.548;2024-03-02T01:53:16;11.65;;;6.25;;
32297;SDS011;18782;48.984;8.548;2024-03-02T01:55:43;10.30;;;5.70;;
32297;SDS011;18782;48.984;8.548;2024-03-02T01:58:11;8.90;;;5.38;;
32297;SDS011;18782;48.984;8.548;2024-03-02T02:00:39;9.52;;;5.70;;
32297;SDS011;18782;48.984;8.548;2024-03-02T02:03:07;7.30;;;4.97;;
32297;SDS011;18782;48.984;8.548;2024-03-02T02:05:34;7.38;;;4.57;;
32297;SDS011;18782;48.984;8.548;2024-03-02T02:08:02;8.50;;;4.80;;
32297;SDS011;18782;48.984;8.548;2024-03-02T02:10:32;7.28;;;4.53;;
32297;SDS011;18782;48.984;8.548;2024-03-02T02:12:59;8.98;;;5.15;;
32297;SDS011;18782;48.984;8.548;2024-03-02T02:15:28;7.78;;;5.13;;
32297;SDS011;18782;48.984;8.548;2024-03-02T02:17:57;7.82;;;5.18;;
32297;SDS011;18782;48.984;8.548;2024-03-02T02:20:26;8.57;;;4.68;;
32297;SDS011;18782;48.984;8.548;2024-03-02T02:22:56;8.00;;;5.07;;
32297;SDS011;18782;48.984;8.548;2024-03-02T02:25:24;7.18;;;4.68;;
32297;SDS011;18782;48.984;8.548;2024-03-02T02:27:52;7.00;;;4.50;;
32297;SDS011;18782;48.984;8.548;2024-03-02T02:30:20;7.93;;;5.00;;
32297;SDS011;18782;48.984;8.548;2024-03-02T02:32:49;8.50;;;4.97;;
32297;SDS011;18782;48.984;8.548;2024-03-02T02:35:17;7.80;;;4.68;;
32297;SDS011;18782;48.984;8.548;2024-03-02T02:37:45;7.78;;;4.75;;
32297;SDS011;18782;48.984;8.548;2024-03-02T02:40:15;8.65;;;4.55;;
32297;SDS011;18782;48.984;8.548;2024-03-02T02:42:45;10.40;;;5.05;;
32297;SDS011;18782;48.984;8.548;2024-03-02T02:45:13;9.63;;;5.50;;
32297;SDS011;18782;48.984;8.548;2024-03-02T02:47:41;7.35;;;4.60;;
32297;SDS011;18782;48.984;8.548;2024-03-02T02:50:10;9.52;;;4.45;;
32297;SDS011;18782;48.984;8.548;2024-03-02T02:52:39;6.80;;;5.18;;
32297;SDS011;18782;48.984;8.548;2024-03-02T02:55:08;7.55;;;4.60;;
32297;SDS011;18782;48.984;8.548;2024-03-02T02:57:40;8.13;;;4.30;;
32297;SDS011;18782;48.984;8.548;2024-03-02T03:00:10;8.40;;;4.57;;
32297;SDS011;18782;48.984;8.548;2024-03-02T03:02:41;7.10;;;4.70;;
32297;SDS011;18782;48.984;8.548;2024-03-02T03:05:09;6.60;;;4.32;;
32297;SDS011;18782;48.984;8.548;2024-03-02T03:07:39;7.30;;;4.50;;
32297;SDS011;18782;48.984;8.548;2024-03-02T03:10:07;8.13;;;4.35;;
32297;SDS011;18782;48.984;8.548;2024-03-02T03:12:35;6.20;;;4.10;;
32297;SDS011;18782;48.984;8.548;2024-03-02T03:15:05;7.75;;;4.25;;
32297;SDS011;18782;48.984;8.548;2024-03-02T03:17:34;7.65;;;4.40;;
32297;SDS011;18782;48.984;8.548;2024-03-02T03:20:04;6.63;;;4.15;;
32297;SDS011;18782;48.984;8.548;2024-03-02T03:22:35;6.37;;;3.77;;
32297;SDS011;18782;48.984;8.548;2024-03-02T03:25:04;6.22;;;4.13;;
32297;SDS011;18782;48.984;8.548;2024-03-02T03:27:33;7.03;;;3.80;;
32297;SDS011;18782;48.984;8.548;2024-03-02T03:30:00;7.70;;;4.68;;
32297;SDS011;18782;48.984;8.548;2024-03-02T03:32:30;7.13;;;4.25;;
32297;SDS011;18782;48.984;8.548;2024-03-02T03:34:57;6.38;;;4.03;;
32297;SDS011;18782;48.984;8.548;2024-03-02T03:37:25;7.60;;;4.00;;
32297;SDS011;18782;48.984;8.548;2024-03-02T03:42:27;8.73;;;3.22;;
32297;SDS011;18782;48.984;8.548;2024-03-02T03:44:55;7.78;;;3.97;;
32297;SDS011;18782;48.984;8.548;2024-03-02T03:47:22;6.70;;;3.78;;
32297;SDS011;18782;48.984;8.548;2024-03-02T03:49:51;5.75;;;3.28;;
32297;SDS011;18782;48.984;8.548;2024-03-02T03:52:19;6.35;;;3.92;;
32297;SDS011;18782;48.984;8.548;2024-03-02T03:54:47;5.80;;;3.38;;
32297;SDS011;18782;48.984;8.548;2024-03-02T03:57:15;7.97;;;3.67;;
32297;SDS011;18782;48.984;8.548;2024-03-02T03:59:42;7.55;;;3.85;;
32297;SDS011;18782;48.984;8.548;2024-03-02T04:02:10;6.40;;;3.80;;
32297;SDS011;18782;48.984;8.548;2024-03-02T04:04:39;6.38;;;3.58;;
32297;SDS011;18782;48.984;8.548;2024-03-02T04:07:08;5.63;;;3.28;;
32297;SDS011;18782;48.984;8.548;2024-03-02T04:09:35;8.27;;;4.40;;
32297;SDS011;18782;48.984;8.548;2024-03-02T04:12:03;6.07;;;3.55;;
32297;SDS011;18782;48.984;8.548;2024-03-02T04:14:31;6.90;;;3.50;;
32297;SDS011;18782;48.984;8.548;2024-03-02T04:16:59;5.70;;;3.42;;
32297;SDS011;18782;48.984;8.548;2024-03-02T04:19:27;4.80;;;3.08;;
32297;SDS011;18782;48.984;8.548;2024-03-02T04:21:54;5.72;;;3.70;;
32297;SDS011;18782;48.984;8.548;2024-03-02T04:24:26;6.07;;;3.63;;
32297;SDS011;18782;48.984;8.548;2024-03-02T04:26:54;5.68;;;3.20;;
32297;SDS011;18782;48.984;8.548;2024-03-02T04:29:21;6.32;;;3.28;;
32297;SDS011;18782;48.984;8.548;2024-03-02T04:31:49;5.28;;;2.90;;
32297;SDS011;18782;48.984;8.548;2024-03-02T04:34:17;5.13;;;3.35;;
32297;SDS011;18782;48.984;8.548;2024-03-02T04:36:44;7.88;;;3.78;;
32297;SDS011;18782;48.984;8.548;2024-03-02T04:39:12;4.32;;;2.95;;
32297;SDS011;18782;48.984;8.548;2024-03-02T04:41:41;6.25;;;3.95;;
32297;SDS011;18782;48.984;8.548;2024-03-02T04:44:08;6.82;;;3.92;;
32297;SDS011;18782;48.984;8.548;2024-03-02T04:46:36;5.22;;;3.25;;
32297;SDS011;18782;48.984;8.548;2024-03-02T04:49:04;5.63;;;3.45;;
32297;SDS011;18782;48.984;8.548;2024-03-02T04:51:32;5.57;;;3.30;;
32297;SDS011;18782;48.984;8.548;2024-03-02T04:54:00;4.57;;;3.03;;
32297;SDS011;18782;48.984;8.548;2024-03-02T04:56:28;5.50;;;3.53;;
32297;SDS011;18782;48.984;8.548;2024-03-02T04:59:11;8.03;;;3.67;;
32297;SDS011;18782;48.984;8.548;2024-03-02T05:01:39;5.93;;;3.08;;
32297;SDS011;18782;48.984;8.548;2024-03-02T05:04:07;4.90;;;2.80;;
32297;SDS011;18782;48.984;8.548;2024-03-02T05:06:34;5.38;;;3.10;;
32297;SDS011;18782;48.984;8.548;2024-03-02T05:09:02;6.03;;;2.95;;
32297;SDS011;18782;48.984;8.548;2024-03-02T05:11:30;5.53;;;2.90;;
32297;SDS011;18782;48.984;8.548;2024-03-02T05:14:27;5.63;;;3.35;;
32297;SDS011;18782;48.984;8.548;2024-03-02T05:16:55;5.88;;;2.75;;
32297;SDS011;18782;48.984;8.548;2024-03-02T05:19:22;5.05;;;2.92;;
32297;SDS011;18782;48.984;8.548;2024-03-02T05:21:51;3.75;;;2.63;;
32297;SDS011;18782;48.984;8.548;2024-03-02T05:24:19;5.57;;;3.20;;
32297;SDS011;18782;48.984;8.548;2024-03-02T05:26:47;4.70;;;3.08;;
32297;SDS011;18782;48.984;8.548;2024-03-02T05:29:15;6.00;;;3.20;;
32297;SDS011;18782;48.984;8.548;2024-03-02T05:31:44;4.57;;;2.75;;
32297;SDS011;18782;48.984;8.548;2024-03-02T05:34:11;5.18;;;2.78;;
32297;SDS011;18782;48.984;8.548;2024-03-02T05:36:39;5.60;;;2.72;;
32297;SDS011;18782;48.984;8.548;2024-03-02T05:39:07;5.57;;;2.90;;
32297;SDS011;18782;48.984;8.548;2024-03-02T05:41:36;4.30;;;2.47;;
32297;SDS011;18782;48.984;8.548;2024-03-02T05:44:04;4.03;;;2.60;;
32297;SDS011;18782;48.984;8.548;2024-03-02T05:46:32;4.90;;;3.08;;
32297;SDS011;18782;48.984;8.548;2024-03-02T05:49:01;5.45;;;2.90;;
32297;SDS011;18782;48.984;8.548;2024-03-02T05:51:30;7.07;;;3.58;;
32297;SDS011;18782;48.984;8.548;2024-03-02T05:53:57;7.07;;;3.22;;
32297;SDS011;18782;48.984;8.548;2024-03-02T05:56:25;4.55;;;2.72;;
32297;SDS011;18782;48.984;8.548;2024-03-02T05:58:53;5.28;;;2.83;;
32297;SDS011;18782;48.984;8.548;2024-03-02T06:01:33;6.13;;;2.88;;
32297;SDS011;18782;48.984;8.548;2024-03-02T06:04:02;3.65;;;2.40;;
32297;SDS011;18782;48.984;8.548;2024-03-02T06:06:30;3.70;;;2.38;;
32297;SDS011;18782;48.984;8.548;2024-03-02T06:08:59;4.00;;;2.30;;
32297;SDS011;18782;48.984;8.548;2024-03-02T06:11:26;4.80;;;2.67;;
32297;SDS011;18782;48.984;8.548;2024-03-02T06:13:54;5.43;;;2.63;;
32297;SDS011;18782;48.984;8.548;2024-03-02T06:16:22;4.15;;;2.20;;
32297;SDS011;18782;48.984;8.548;2024-03-02T06:18:50;4.57;;;2.50;;
32297;SDS011;18782;48.984;8.548;2024-03-02T06:21:19;4.93;;;2.47;;
32297;SDS011;18782;48.984;8.548;2024-03-02T06:23:47;4.72;;;2.60;;
32297;SDS011;18782;48.984;8.548;2024-03-02T06:26:14;4.00;;;2.50;;
32297;SDS011;18782;48.984;8.548;2024-03-02T06:28:42;5.15;;;2.50;;
32297;SDS011;18782;48.984;8.548;2024-03-02T06:31:10;5.32;;;2.67;;
32297;SDS011;18782;48.984;8.548;2024-03-02T06:33:37;5.40;;;2.88;;
32297;SDS011;18782;48.984;8.548;2024-03-02T06:36:06;6.28;;;3.40;;
32297;SDS011;18782;48.984;8.548;2024-03-02T06:38:36;6.38;;;3.72;;
32297;SDS011;18782;48.984;8.548;2024-03-02T06:41:07;7.78;;;4.20;;
32297;SDS011;18782;48.984;8.548;2024-03-02T06:43:35;5.53;;;3.40;;
32297;SDS011;18782;48.984;8.548;2024-03-02T06:46:04;7.82;;;3.60;;
32297;SDS011;18782;48.984;8.548;2024-03-02T06:48:35;6.78;;;3.38;;
32297;SDS011;18782;48.984;8.548;2024-03-02T06:51:03;5.03;;;3.10;;
32297;SDS011;18782;48.984;8.548;2024-03-02T06:53:31;6.47;;;3.15;;
32297;SDS011;18782;48.984;8.548;2024-03-02T06:56:01;5.07;;;2.70;;
32297;SDS011;18782;48.984;8.548;2024-03-02T06:58:29;5.70;;;3.00;;
32297;SDS011;18782;48.984;8.548;2024-03-02T07:00:56;8.07;;;4.05;;
32297;SDS011;18782;48.984;8.548;2024-03-02T07:03:24;13.55;;;5.93;;
32297;SDS011;18782;48.984;8.548;2024-03-02T07:05:52;8.80;;;4.50;;
32297;SDS011;18782;48.984;8.548;2024-03-02T07:08:19;7.47;;;3.70;;
32297;SDS011;18782;48.984;8.548;2024-03-02T07:10:47;7.40;;;3.53;;
32297;SDS011;18782;48.984;8.548;2024-03-02T07:13:17;6.30;;;3.60;;
32297;SDS011;18782;48.984;8.548;2024-03-02T07:15:44;6.13;;;2.63;;
32297;SDS011;18782;48.984;8.548;2024-03-02T07:18:32;9.48;;;3.45;;
32297;SDS011;18782;48.984;8.548;2024-03-02T07:21:01;6.88;;;3.58;;
32297;SDS011;18782;48.984;8.548;2024-03-02T07:23:29;6.57;;;3.55;;
32297;SDS011;18782;48.984;8.548;2024-03-02T07:25:57;6.70;;;4.25;;
32297;SDS011;18782;48.984;8.548;2024-03-02T07:28:31;6.00;;;4.00;;
32297;SDS011;18782;48.984;8.548;2024-03-02T07:30:59;9.50;;;4.25;;
32297;SDS011;18782;48.984;8.548;2024-03-02T07:33:28;7.82;;;4.30;;
32297;SDS011;18782;48.984;8.548;2024-03-02T07:35:56;6.85;;;4.30;;
32297;SDS011;18782;48.984;8.548;2024-03-02T07:38:27;5.93;;;3.85;;
32297;SDS011;18782;48.984;8.548;2024-03-02T07:40:55;8.07;;;5.03;;
32297;SDS011;18782;48.984;8.548;2024-03-02T07:43:23;14.80;;;8.05;;
32297;SDS011;18782;48.984;8.548;2024-03-02T07:45:52;8.45;;;4.30;;
32297;SDS011;18782;48.984;8.548;2024-03-02T07:48:20;7.38;;;4.07;;
32297;SDS011;18782;48.984;8.548;2024-03-02T07:50:48;6.60;;;4.05;;
32297;SDS011;18782;48.984;8.548;2024-03-02T07:53:16;7.57;;;4.70;;
32297;SDS011;18782;48.984;8.548;2024-03-02T07:55:43;7.53;;;4.07;;
32297;SDS011;18782;48.984;8.548;2024-03-02T07:58:11;7.90;;;4.47;;
32297;SDS011;18782;48.984;8.548;2024-03-02T08:00:39;7.05;;;4.45;;
32297;SDS011;18782;48.984;8.548;2024-03-02T08:03:08;8.52;;;4.65;;
32297;SDS011;18782;48.984;8.548;2024-03-02T08:05:37;9.63;;;4.57;;
32297;SDS011;18782;48.984;8.548;2024-03-02T08:08:05;7.75;;;4.32;;
32297;SDS011;18782;48.984;8.548;2024-03-02T08:10:33;6.65;;;4.25;;
32297;SDS011;18782;48.984;8.548;2024-03-02T08:13:02;8.02;;;4.13;;
32297;SDS011;18782;48.984;8.548;2024-03-02T08:15:29;8.75;;;4.75;;
32297;SDS011;18782;48.984;8.548;2024-03-02T08:17:57;8.15;;;4.32;;
32297;SDS011;18782;48.984;8.548;2024-03-02T08:20:27;8.18;;;4.50;;
32297;SDS011;18782;48.984;8.548;2024-03-02T08:22:55;7.53;;;4.53;;
32297;SDS011;18782;48.984;8.548;2024-03-02T08:25:22;6.45;;;4.15;;
32297;SDS011;18782;48.984;8.548;2024-03-02T08:27:50;7.97;;;4.43;;
32297;SDS011;18782;48.984;8.548;2024-03-02T08:30:18;6.88;;;4.43;;
32297;SDS011;18782;48.984;8.548;2024-03-02T08:32:45;9.48;;;4.47;;
32297;SDS011;18782;48.984;8.548;2024-03-02T08:35:13;10.35;;;5.80;;
32297;SDS011;18782;48.984;8.548;2024-03-02T08:37:42;9.68;;;4.55;;
32297;SDS011;18782;48.984;8.548;2024-03-02T08:40:11;46.78;;;23.33;;
32297;SDS011;18782;48.984;8.548;2024-03-02T08:42:43;52.72;;;25.85;;
32297;SDS011;18782;48.984;8.548;2024-03-02T08:45:12;72.65;;;34.70;;
32297;SDS011;18782;48.984;8.548;2024-03-02T08:47:39;50.70;;;24.55;;
32297;SDS011;18782;48.984;8.548;2024-03-02T08:50:08;19.42;;;12.10;;
32297;SDS011;18782;48.984;8.548;2024-03-02T08:52:35;16.52;;;9.30;;
32297;SDS011;18782;48.984;8.548;2024-03-02T08:55:05;11.93;;;6.15;;
32297;SDS011;18782;48.984;8.548;2024-03-02T08:57:33;9.20;;;4.40;;
32297;SDS011;18782;48.984;8.548;2024-03-02T09:00:01;5.72;;;3.28;;
32297;SDS011;18782;48.984;8.548;2024-03-02T09:02:29;6.38;;;3.92;;
32297;SDS011;18782;48.984;8.548;2024-03-02T09:04:56;8.60;;;4.13;;
32297;SDS011;18782;48.984;8.548;2024-03-02T09:07:25;5.90;;;3.55;;
32297;SDS011;18782;48.984;8.548;2024-03-02T09:09:52;7.82;;;3.45;;
32297;SDS011;18782;48.984;8.548;2024-03-02T09:12:21;6.32;;;2.80;;
32297;SDS011;18782;48.984;8.548;2024-03-02T09:14:49;3.50;;;2.20;;
32297;SDS011;18782;48.984;8.548;2024-03-02T09:17:17;3.42;;;2.35;;
32297;SDS011;18782;48.984;8.548;2024-03-02T09:19:44;4.80;;;2.53;;
32297;SDS011;18782;48.984;8.548;2024-03-02T09:22:12;4.72;;;2.38;;
32297;SDS011;18782;48.984;8.548;2024-03-02T09:24:40;5.80;;;2.90;;
32297;SDS011;18782;48.984;8.548;2024-03-02T09:27:07;4.10;;;2.00;;
32297;SDS011;18782;48.984;8.548;2024-03-02T09:29:36;4.13;;;2.30;;
32297;SDS011;18782;48.984;8.548;2024-03-02T09:32:06;3.90;;;1.80;;
32297;SDS011;18782;48.984;8.548;2024-03-02T09:34:35;4.53;;;2.10;;
32297;SDS011;18782;48.984;8.548;2024-03-02T09:37:03;3.60;;;1.55;;
32297;SDS011;18782;48.984;8.548;2024-03-02T09:39:31;3.80;;;1.70;;
32297;SDS011;18782;48.984;8.548;2024-03-02T09:41:59;3.72;;;2.00;;
32297;SDS011;18782;48.984;8.548;2024-03-02T09:44:27;3.50;;;1.70;;
32297;SDS011;18782;48.984;8.548;2024-03-02T09:46:56;4.60;;;1.60;;
32297;SDS011;18782;48.984;8.548;2024-03-02T09:49:24;2.53;;;1.25;;
32297;SDS011;18782;48.984;8.548;2024-03-02T09:51:52;1.88;;;0.98;;
32297;SDS011;18782;48.984;8.548;2024-03-02T09:54:20;3.40;;;1.58;;
32297;SDS011;18782;48.984;8.548;2024-03-02T09:56:49;4.03;;;0.90;;
32297;SDS011;18782;48.984;8.548;2024-03-02T09:59:18;2.22;;;0.80;;
32297;SDS011;18782;48.984;8.548;2024-03-02T10:01:58;2.42;;;0.65;;
32297;SDS011;18782;48.984;8.548;2024-03-02T10:04:27;1.90;;;0.40;;
32297;SDS011;18782;48.984;8.548;2024-03-02T10:07:09;0.50;;;0.30;;
32297;SDS011;18782;48.984;8.548;2024-03-02T10:09:38;1.10;;;0.50;;
32297;SDS011;18782;48.984;8.548;2024-03-02T10:12:07;1.08;;;0.40;;
32297;SDS011;18782;48.984;8.548;2024-03-02T10:14:36;2.65;;;1.13;;
32297;SDS011;18782;48.984;8.548;2024-03-02T10:17:06;3.15;;;1.52;;
32297;SDS011;18782;48.984;8.548;2024-03-02T10:19:35;2.28;;;0.98;;
32297;SDS011;18782;48.984;8.548;2024-03-02T10:22:04;1.48;;;0.70;;
32297;SDS011;18782;48.984;8.548;2024-03-02T10:24:36;3.05;;;1.00;;
32297;SDS011;18782;48.984;8.548;2024-03-02T10:27:09;3.73;;;1.10;;
32297;SDS011;18782;48.984;8.548;2024-03-02T10:29:38;2.47;;;1.20;;
32297;SDS011;18782;48.984;8.548;2024-03-02T10:32:10;1.73;;;1.00;;
32297;SDS011;18782;48.984;8.548;2024-03-02T10:34:39;2.67;;;1.10;;
32297;SDS011;18782;48.984;8.548;2024-03-02T10:37:08;1.88;;;1.00;;
32297;SDS011;18782;48.984;8.548;2024-03-02T10:39:35;3.00;;;0.90;;
32297;SDS011;18782;48.984;8.548;2024-03-02T10:42:04;1.50;;;0.70;;
32297;SDS011;18782;48.984;8.548;2024-03-02T10:44:33;1.83;;;0.90;;
32297;SDS011;18782;48.984;8.548;2024-03-02T10:47:02;1.67;;;1.05;;
32297;SDS011;18782;48.984;8.548;2024-03-02T10:49:33;2.85;;;1.50;;
32297;SDS011;18782;48.984;8.548;2024-03-02T10:52:01;3.05;;;1.30;;
32297;SDS011;18782;48.984;8.548;2024-03-02T10:54:29;2.53;;;1.80;;
32297;SDS011;18782;48.984;8.548;2024-03-02T10:57:03;4.07;;;1.95;;
32297;SDS011;18782;48.984;8.548;2024-03-02T10:59:32;3.30;;;2.30;;
32297;SDS011;18782;48.984;8.548;2024-03-02T11:02:02;2.63;;;1.80;;
32297;SDS011;18782;48.984;8.548;2024-03-02T11:04:34;3.67;;;1.63;;
32297;SDS011;18782;48.984;8.548;2024-03-02T11:07:04;2.60;;;1.65;;
32297;SDS011;18782;48.984;8.548;2024-03-02T11:09:34;3.05;;;1.77;;
32297;SDS011;18782;48.984;8.548;2024-03-02T11:12:06;4.57;;;1.40;;
32297;SDS011;18782;48.984;8.548;2024-03-02T11:14:40;2.38;;;1.50;;
32297;SDS011;18782;48.984;8.548;2024-03-02T11:17:10;1.92;;;1.58;;
32297;SDS011;18782;48.984;8.548;2024-03-02T11:19:43;3.88;;;1.52;;
32297;SDS011;18782;48.984;8.548;2024-03-02T11:22:12;2.75;;;1.92;;
32297;SDS011;18782;48.984;8.548;2024-03-02T11:24:47;4.70;;;2.00;;
32297;SDS011;18782;48.984;8.548;2024-03-02T11:27:20;4.63;;;3.08;;
32297;SDS011;18782;48.984;8.548;2024-03-02T11:33:24;3.70;;;1.50;;
32297;SDS011;18782;48.984;8.548;2024-03-02T11:35:56;3.58;;;1.63;;
32297;SDS011;18782;48.984;8.548;2024-03-02T11:38:27;3.13;;;1.40;;
32297;SDS011;18782;48.984;8.548;2024-03-02T11:40:55;2.47;;;1.40;;
32297;SDS011;18782;48.984;8.548;2024-03-02T11:43:24;3.03;;;1.67;;
32297;SDS011;18782;48.984;8.548;2024-03-02T11:45:56;4.28;;;1.70;;
32297;SDS011;18782;48.984;8.548;2024-03-02T11:48:25;2.42;;;1.48;;
32297;SDS011;18782;48.984;8.548;2024-03-02T11:50:53;2.75;;;1.33;;
32297;SDS011;18782;48.984;8.548;2024-03-02T11:53:24;3.13;;;1.00;;
32297;SDS011;18782;48.984;8.548;2024-03-02T11:58:27;2.38;;;1.35;;
32297;SDS011;18782;48.984;8.548;2024-03-02T12:00:55;1.55;;;0.90;;
32297;SDS011;18782;48.984;8.548;2024-03-02T12:03:24;1.45;;;0.95;;
32297;SDS011;18782;48.984;8.548;2024-03-02T12:05:55;2.35;;;0.85;;
32297;SDS011;18782;48.984;8.548;2024-03-02T12:08:23;2.28;;;1.00;;
32297;SDS011;18782;48.984;8.548;2024-03-02T12:10:57;3.85;;;2.75;;
32297;SDS011;18782;48.984;8.548;2024-03-02T12:13:27;1.25;;;0.80;;
32297;SDS011;18782;48.984;8.548;2024-03-02T12:15:55;2.13;;;0.93;;
32297;SDS011;18782;48.984;8.548;2024-03-02T12:18:23;1.73;;;0.70;;
32297;SDS011;18782;48.984;8.548;2024-03-02T12:20:53;1.65;;;0.63;;
32297;SDS011;18782;48.984;8.548;2024-03-02T12:23:23;1.10;;;0.80;;
32297;SDS011;18782;48.984;8.548;2024-03-02T12:25:51;0.70;;;0.43;;
32297;SDS011;18782;48.984;8.548;2024-03-02T12:28:19;0.85;;;0.50;;
32297;SDS011;18782;48.984;8.548;2024-03-02T12:30:47;1.30;;;0.70;;
32297;SDS011;18782;48.984;8.548;2024-03-02T12:33:16;1.17;;;0.60;;
32297;SDS011;18782;48.984;8.548;2024-03-02T12:35:45;1.17;;;0.30;;
32297;SDS011;18782;48.984;8.548;2024-03-02T12:38:14;1.40;;;0.50;;
32297;SDS011;18782;48.984;8.548;2024-03-02T12:40:41;1.27;;;0.90;;
32297;SDS011;18782;48.984;8.548;2024-03-02T12:43:09;0.55;;;0.30;;
32297;SDS011;18782;48.984;8.548;2024-03-02T12:45:37;0.68;;;0.32;;
32297;SDS011;18782;48.984;8.548;2024-03-02T12:48:05;0.50;;;0.20;;
32297;SDS011;18782;48.984;8.548;2024-03-02T12:50:33;0.90;;;0.40;;
32297;SDS011;18782;48.984;8.548;2024-03-02T12:53:01;1.38;;;0.60;;
32297;SDS011;18782;48.984;8.548;2024-03-02T12:55:30;0.47;;;0.28;;
32297;SDS011;18782;48.984;8.548;2024-03-02T12:57:58;1.23;;;0.63;;
32297;SDS011;18782;48.984;8.548;2024-03-02T13:00:26;0.60;;;0.30;;
32297;SDS011;18782;48.984;8.548;2024-03-02T13:02:56;0.40;;;0.20;;
32297;SDS011;18782;48.984;8.548;2024-03-02T13:05:29;0.93;;;0.30;;
32297;SDS011;18782;48.984;8.548;2024-03-02T13:07:58;0.40;;;0.20;;
32297;SDS011;18782;48.984;8.548;2024-03-02T13:10:27;0.68;;;0.20;;
32297;SDS011;18782;48.984;8.548;2024-03-02T13:12:57;1.98;;;0.60;;
32297;SDS011;18782;48.984;8.548;2024-03-02T13:15:25;0.73;;;0.20;;
32297;SDS011;18782;48.984;8.548;2024-03-02T13:17:53;0.63;;;0.20;;
32297;SDS011;18782;48.984;8.548;2024-03-02T13:20:21;0.50;;;0.30;;
32297;SDS011;18782;48.984;8.548;2024-03-02T13:22:50;0.77;;;0.28;;
32297;SDS011;18782;48.984;8.548;2024-03-02T13:25:18;0.40;;;0.30;;
32297;SDS011;18782;48.984;8.548;2024-03-02T13:27:46;0.52;;;0.20;;
32297;SDS011;18782;48.984;8.548;2024-03-02T13:30:15;0.60;;;0.20;;
32297;SDS011;18782;48.984;8.548;2024-03-02T13:32:43;0.73;;;0.38;;
32297;SDS011;18782;48.984;8.548;2024-03-02T13:35:11;0.73;;;0.30;;
32297;SDS011;18782;48.984;8.548;2024-03-02T13:37:39;0.60;;;0.30;;
32297;SDS011;18782;48.984;8.548;2024-03-02T13:40:08;1.92;;;0.40;;
32297;SDS011;18782;48.984;8.548;2024-03-02T13:42:40;0.60;;;0.28;;
32297;SDS011;18782;48.984;8.548;2024-03-02T13:45:08;0.77;;;0.50;;
32297;SDS011;18782;48.984;8.548;2024-03-02T13:47:37;1.52;;;0.40;;
32297;SDS011;18782;48.984;8.548;2024-03-02T13:50:05;0.93;;;0.45;;
32297;SDS011;18782;48.984;8.548;2024-03-02T13:52:33;1.15;;;0.40;;
32297;SDS011;18782;48.984;8.548;2024-03-02T13:55:01;1.48;;;0.40;;
32297;SDS011;18782;48.984;8.548;2024-03-02T13:57:29;1.88;;;0.70;;
32297;SDS011;18782;48.984;8.548;2024-03-02T13:59:58;0.88;;;0.43;;
32297;SDS011;18782;48.984;8.548;2024-03-02T14:02:38;1.25;;;0.55;;
32297;SDS011;18782;48.984;8.548;2024-03-02T14:05:06;0.98;;;0.40;;
32297;SDS011;18782;48.984;8.548;2024-03-02T14:07:37;1.52;;;0.50;;
32297;SDS011;18782;48.984;8.548;2024-03-02T14:10:05;0.82;;;0.40;;
32297;SDS011;18782;48.984;8.548;2024-03-02T14:12:33;2.00;;;0.60;;
32297;SDS011;18782;48.984;8.548;2024-03-02T14:15:01;2.40;;;0.73;;
32297;SDS011;18782;48.984;8.548;2024-03-02T14:17:29;0.95;;;0.40;;
32297;SDS011;18782;48.984;8.548;2024-03-02T14:19:59;0.57;;;0.40;;
32297;SDS011;18782;48.984;8.548;2024-03-02T14:22:27;0.73;;;0.40;;
32297;SDS011;18782;48.984;8.548;2024-03-02T14:24:54;1.55;;;0.45;;
32297;SDS011;18782;48.984;8.548;2024-03-02T14:27:23;2.05;;;0.90;;
32297;SDS011;18782;48.984;8.548;2024-03-02T14:30:10;1.42;;;0.52;;
32297;SDS011;18782;48.984;8.548;2024-03-02T14:32:39;3.92;;;1.35;;
32297;SDS011;18782;48.984;8.548;2024-03-02T14:35:08;1.15;;;0.60;;
32297;SDS011;18782;48.984;8.548;2024-03-02T14:37:37;0.90;;;0.50;;
32297;SDS011;18782;48.984;8.548;2024-03-02T14:40:06;0.75;;;0.47;;
32297;SDS011;18782;48.984;8.548;2024-03-02T14:42:36;0.47;;;0.28;;
32297;SDS011;18782;48.984;8.548;2024-03-02T14:45:04;1.15;;;0.47;;
32297;SDS011;18782;48.984;8.548;2024-03-02T14:47:32;1.00;;;0.50;;
32297;SDS011;18782;48.984;8.548;2024-03-02T14:50:01;0.80;;;0.50;;
32297;SDS011;18782;48.984;8.548;2024-03-02T14:52:33;0.70;;;0.50;;
32297;SDS011;18782;48.984;8.548;2024-03-02T14:55:01;1.30;;;0.50;;
32297;SDS011;18782;48.984;8.548;2024-03-02T14:57:30;3.33;;;1.95;;
32297;SDS011;18782;48.984;8.548;2024-03-02T14:59:58;1.25;;;0.60;;
32297;SDS011;18782;48.984;8.548;2024-03-02T15:02:26;1.92;;;1.17;;
32297;SDS011;18782;48.984;8.548;2024-03-02T15:04:55;1.55;;;0.93;;
32297;SDS011;18782;48.984;8.548;2024-03-02T15:07:22;1.70;;;0.73;;
32297;SDS011;18782;48.984;8.548;2024-03-02T15:09:52;2.25;;;0.60;;